sensor_id;sensor_type;location;lat;lon;timestamp;P1;P2;P0
55276;PMS5003;41136;51.478;-2.610;2023-04-28T00:01:01;24;23;
55276;PMS5003;41136;51.478;-2.610;2023-04-28T00:03:27;23;20;
55276;PMS5003;41136;51.478;-2.610;2023-04-28T00:05:52;20;17;
55276;PMS5003;41136;51.478;-2.610;2023-04-28T00:08:18;22;19;
55276;PMS5003;41136;51.478;-2.610;2023-04-28T00:10:43;18;17;
55276;PMS5003;41136;51.478;-2.610;2023-04-28T00:16:01;24;15;
55276;PMS5003;41136;51.478;-2.610;2023-04-28T00:18:27;19;18;
55276;PMS5003;41136;51.478;-2.610;2023-04-28T00:20:53;14;14;
55276;PMS5003;41136;51.478;-2.610;2023-04-28T00:23:18;20;16;
55276;PMS5003;41136;51.478;-2.610;2023-04-28T00:25:43;17;15;
55276;PMS5003;41136;51.478;-2.610;2023-04-28T00:28:09;16;16;
55276;PMS5003;41136;51.478;-2.610;2023-04-28T00:30:34;14;14;
55276;PMS5003;41136;51.478;-2.610;2023-04-28T00:33:00;13;11;
55276;PMS5003;41136;51.478;-2.610;2023-04-28T00:35:25;15;10;
55276;PMS5003;41136;51.478;-2.610;2023-04-28T00:37:51;12;12;
55276;PMS5003;41136;51.478;-2.610;2023-04-28T00:40:16;10;8;
55276;PMS5003;41136;51.478;-2.610;2023-04-28T00:42:42;11;10;
55276;PMS5003;41136;51.478;-2.610;2023-04-28T00:45:08;10;10;
55276;PMS5003;41136;51.478;-2.610;2023-04-28T00:47:33;7;7;
55276;PMS5003;41136;51.478;-2.610;2023-04-28T00:49:58;8;8;
55276;PMS5003;41136;51.478;-2.610;2023-04-28T00:52:23;6;6;
55276;PMS5003;41136;51.478;-2.610;2023-04-28T00:54:49;6;6;
55276;PMS5003;41136;51.478;-2.610;2023-04-28T00:57:15;7;7;
55276;PMS5003;41136;51.478;-2.610;2023-04-28T00:59:40;6;6;
55276;PMS5003;41136;51.478;-2.610;2023-04-28T01:02:05;9;9;
55276;PMS5003;41136;51.478;-2.610;2023-04-28T01:04:31;9;7;
55276;PMS5003;41136;51.478;-2.610;2023-04-28T01:06:57;5;5;
55276;PMS5003;41136;51.478;-2.610;2023-04-28T01:09:22;9;8;
55276;PMS5003;41136;51.478;-2.610;2023-04-28T01:11:48;7;7;
55276;PMS5003;41136;51.478;-2.610;2023-04-28T01:14:13;7;7;
55276;PMS5003;41136;51.478;-2.610;2023-04-28T01:16:38;12;9;
55276;PMS5003;41136;51.478;-2.610;2023-04-28T01:19:04;9;6;
55276;PMS5003;41136;51.478;-2.610;2023-04-28T01:21:29;8;8;
55276;PMS5003;41136;51.478;-2.610;2023-04-28T01:23:54;9;9;
55276;PMS5003;41136;51.478;-2.610;2023-04-28T01:26:20;7;7;
55276;PMS5003;41136;51.478;-2.610;2023-04-28T01:28:45;9;8;
55276;PMS5003;41136;51.478;-2.610;2023-04-28T01:31:10;10;8;
55276;PMS5003;41136;51.478;-2.610;2023-04-28T01:33:36;7;6;
55276;PMS5003;41136;51.478;-2.610;2023-04-28T01:36:01;7;7;
55276;PMS5003;41136;51.478;-2.610;2023-04-28T01:38:27;10;9;
55276;PMS5003;41136;51.478;-2.610;2023-04-28T01:40:53;4;4;
55276;PMS5003;41136;51.478;-2.610;2023-04-28T01:43:18;7;7;
55276;PMS5003;41136;51.478;-2.610;2023-04-28T01:45:43;8;8;
55276;PMS5003;41136;51.478;-2.610;2023-04-28T01:48:08;8;8;
55276;PMS5003;41136;51.478;-2.610;2023-04-28T01:50:33;9;7;
55276;PMS5003;41136;51.478;-2.610;2023-04-28T01:52:59;7;7;
55276;PMS5003;41136;51.478;-2.610;2023-04-28T01:55:24;8;8;
55276;PMS5003;41136;51.478;-2.610;2023-04-28T01:57:49;8;8;
55276;PMS5003;41136;51.478;-2.610;2023-04-28T02:00:15;8;7;
55276;PMS5003;41136;51.478;-2.610;2023-04-28T02:02:40;7;7;
55276;PMS5003;41136;51.478;-2.610;2023-04-28T02:05:06;9;5;
55276;PMS5003;41136;51.478;-2.610;2023-04-28T02:07:31;7;7;
55276;PMS5003;41136;51.478;-2.610;2023-04-28T02:09:56;6;6;
55276;PMS5003;41136;51.478;-2.610;2023-04-28T02:12:21;5;5;
55276;PMS5003;41136;51.478;-2.610;2023-04-28T02:14:47;6;6;
55276;PMS5003;41136;51.478;-2.610;2023-04-28T02:17:12;6;6;
55276;PMS5003;41136;51.478;-2.610;2023-04-28T02:19:37;5;5;
55276;PMS5003;41136;51.478;-2.610;2023-04-28T02:22:03;4;4;
55276;PMS5003;41136;51.478;-2.610;2023-04-28T02:24:28;5;3;
55276;PMS5003;41136;51.478;-2.610;2023-04-28T02:26:53;5;2;
55276;PMS5003;41136;51.478;-2.610;2023-04-28T02:29:19;3;3;
55276;PMS5003;41136;51.478;-2.610;2023-04-28T02:31:44;3;3;
55276;PMS5003;41136;51.478;-2.610;2023-04-28T02:34:09;2;2;
55276;PMS5003;41136;51.478;-2.610;2023-04-28T02:36:34;1;1;
55276;PMS5003;41136;51.478;-2.610;2023-04-28T02:39:00;4;3;
55276;PMS5003;41136;51.478;-2.610;2023-04-28T02:41:25;3;3;
55276;PMS5003;41136;51.478;-2.610;2023-04-28T02:43:50;2;0;
55276;PMS5003;41136;51.478;-2.610;2023-04-28T02:46:16;2;2;
55276;PMS5003;41136;51.478;-2.610;2023-04-28T02:48:41;6;5;
55276;PMS5003;41136;51.478;-2.610;2023-04-28T02:51:06;3;3;
55276;PMS5003;41136;51.478;-2.610;2023-04-28T02:53:32;1;1;
55276;PMS5003;41136;51.478;-2.610;2023-04-28T02:55:57;3;3;
55276;PMS5003;41136;51.478;-2.610;2023-04-28T02:58:22;2;2;
55276;PMS5003;41136;51.478;-2.610;2023-04-28T03:00:48;3;3;
55276;PMS5003;41136;51.478;-2.610;2023-04-28T03:03:13;3;1;
55276;PMS5003;41136;51.478;-2.610;2023-04-28T03:05:38;1;1;
55276;PMS5003;41136;51.478;-2.610;2023-04-28T03:08:04;1;1;
55276;PMS5003;41136;51.478;-2.610;2023-04-28T03:10:29;1;1;
55276;PMS5003;41136;51.478;-2.610;2023-04-28T03:12:54;0;0;
55276;PMS5003;41136;51.478;-2.610;2023-04-28T03:15:20;1;1;
55276;PMS5003;41136;51.478;-2.610;2023-04-28T03:17:45;2;1;
55276;PMS5003;41136;51.478;-2.610;2023-04-28T03:20:10;0;0;
55276;PMS5003;41136;51.478;-2.610;2023-04-28T03:22:36;0;0;
55276;PMS5003;41136;51.478;-2.610;2023-04-28T03:25:01;0;0;
55276;PMS5003;41136;51.478;-2.610;2023-04-28T03:27:26;0;0;
55276;PMS5003;41136;51.478;-2.610;2023-04-28T03:29:52;1;1;
55276;PMS5003;41136;51.478;-2.610;2023-04-28T03:32:17;0;0;
55276;PMS5003;41136;51.478;-2.610;2023-04-28T03:34:42;0;0;
55276;PMS5003;41136;51.478;-2.610;2023-04-28T03:37:07;2;0;
55276;PMS5003;41136;51.478;-2.610;2023-04-28T03:39:33;0;0;
55276;PMS5003;41136;51.478;-2.610;2023-04-28T03:41:58;0;0;
55276;PMS5003;41136;51.478;-2.610;2023-04-28T03:44:23;0;0;
55276;PMS5003;41136;51.478;-2.610;2023-04-28T03:46:49;0;0;
55276;PMS5003;41136;51.478;-2.610;2023-04-28T03:49:14;0;0;
55276;PMS5003;41136;51.478;-2.610;2023-04-28T03:51:40;0;0;
55276;PMS5003;41136;51.478;-2.610;2023-04-28T03:56:16;0;0;
55276;PMS5003;41136;51.478;-2.610;2023-04-28T04:00:37;0;0;
55276;PMS5003;41136;51.478;-2.610;2023-04-28T04:03:03;0;0;
55276;PMS5003;41136;51.478;-2.610;2023-04-28T04:05:28;0;0;
55276;PMS5003;41136;51.478;-2.610;2023-04-28T04:07:53;0;0;
55276;PMS5003;41136;51.478;-2.610;2023-04-28T04:10:18;0;0;
55276;PMS5003;41136;51.478;-2.610;2023-04-28T04:12:44;0;0;
55276;PMS5003;41136;51.478;-2.610;2023-04-28T04:15:09;0;0;
55276;PMS5003;41136;51.478;-2.610;2023-04-28T04:17:34;0;0;
55276;PMS5003;41136;51.478;-2.610;2023-04-28T04:20:00;0;0;
55276;PMS5003;41136;51.478;-2.610;2023-04-28T04:22:25;0;0;
55276;PMS5003;41136;51.478;-2.610;2023-04-28T04:24:50;0;0;
55276;PMS5003;41136;51.478;-2.610;2023-04-28T04:27:16;0;0;
55276;PMS5003;41136;51.478;-2.610;2023-04-28T04:29:41;0;0;
55276;PMS5003;41136;51.478;-2.610;2023-04-28T04:32:06;0;0;
55276;PMS5003;41136;51.478;-2.610;2023-04-28T04:34:32;0;0;
55276;PMS5003;41136;51.478;-2.610;2023-04-28T04:36:57;0;0;
55276;PMS5003;41136;51.478;-2.610;2023-04-28T04:39:22;0;0;
55276;PMS5003;41136;51.478;-2.610;2023-04-28T04:41:48;0;0;
55276;PMS5003;41136;51.478;-2.610;2023-04-28T04:44:13;0;0;
55276;PMS5003;41136;51.478;-2.610;2023-04-28T04:46:38;0;0;
55276;PMS5003;41136;51.478;-2.610;2023-04-28T04:49:04;0;0;
55276;PMS5003;41136;51.478;-2.610;2023-04-28T04:51:29;0;0;
55276;PMS5003;41136;51.478;-2.610;2023-04-28T04:53:54;1;0;
55276;PMS5003;41136;51.478;-2.610;2023-04-28T04:56:20;0;0;
55276;PMS5003;41136;51.478;-2.610;2023-04-28T04:58:45;0;0;
55276;PMS5003;41136;51.478;-2.610;2023-04-28T05:01:10;0;0;
55276;PMS5003;41136;51.478;-2.610;2023-04-28T05:03:36;1;0;
55276;PMS5003;41136;51.478;-2.610;2023-04-28T05:06:01;0;0;
55276;PMS5003;41136;51.478;-2.610;2023-04-28T05:08:26;0;0;
55276;PMS5003;41136;51.478;-2.610;2023-04-28T05:10:52;1;1;
55276;PMS5003;41136;51.478;-2.610;2023-04-28T05:13:17;0;0;
55276;PMS5003;41136;51.478;-2.610;2023-04-28T05:15:42;0;0;
55276;PMS5003;41136;51.478;-2.610;2023-04-28T05:18:08;2;1;
55276;PMS5003;41136;51.478;-2.610;2023-04-28T05:20:33;0;0;
55276;PMS5003;41136;51.478;-2.610;2023-04-28T05:22:58;1;1;
55276;PMS5003;41136;51.478;-2.610;2023-04-28T05:25:24;2;1;
55276;PMS5003;41136;51.478;-2.610;2023-04-28T05:27:49;1;1;
55276;PMS5003;41136;51.478;-2.610;2023-04-28T05:30:14;3;3;
55276;PMS5003;41136;51.478;-2.610;2023-04-28T05:32:40;1;1;
55276;PMS5003;41136;51.478;-2.610;2023-04-28T05:35:05;1;1;
55276;PMS5003;41136;51.478;-2.610;2023-04-28T05:37:30;1;1;
55276;PMS5003;41136;51.478;-2.610;2023-04-28T05:39:56;1;1;
55276;PMS5003;41136;51.478;-2.610;2023-04-28T05:42:21;1;0;
55276;PMS5003;41136;51.478;-2.610;2023-04-28T05:44:46;1;1;
55276;PMS5003;41136;51.478;-2.610;2023-04-28T05:47:12;3;3;
55276;PMS5003;41136;51.478;-2.610;2023-04-28T05:49:37;2;2;
55276;PMS5003;41136;51.478;-2.610;2023-04-28T05:52:03;2;1;
55276;PMS5003;41136;51.478;-2.610;2023-04-28T05:54:28;5;2;
55276;PMS5003;41136;51.478;-2.610;2023-04-28T05:56:53;2;2;
55276;PMS5003;41136;51.478;-2.610;2023-04-28T05:59:18;1;1;
55276;PMS5003;41136;51.478;-2.610;2023-04-28T06:01:44;2;2;
55276;PMS5003;41136;51.478;-2.610;2023-04-28T06:04:09;2;2;
55276;PMS5003;41136;51.478;-2.610;2023-04-28T06:06:35;3;3;
55276;PMS5003;41136;51.478;-2.610;2023-04-28T06:09:00;3;3;
55276;PMS5003;41136;51.478;-2.610;2023-04-28T06:11:25;5;3;
55276;PMS5003;41136;51.478;-2.610;2023-04-28T06:13:51;3;3;
55276;PMS5003;41136;51.478;-2.610;2023-04-28T06:16:16;3;3;
55276;PMS5003;41136;51.478;-2.610;2023-04-28T06:18:41;3;3;
55276;PMS5003;41136;51.478;-2.610;2023-04-28T06:21:07;5;3;
55276;PMS5003;41136;51.478;-2.610;2023-04-28T06:23:32;3;3;
55276;PMS5003;41136;51.478;-2.610;2023-04-28T06:25:57;6;4;
55276;PMS5003;41136;51.478;-2.610;2023-04-28T06:28:23;6;6;
55276;PMS5003;41136;51.478;-2.610;2023-04-28T06:30:48;6;6;
55276;PMS5003;41136;51.478;-2.610;2023-04-28T06:33:13;8;7;
55276;PMS5003;41136;51.478;-2.610;2023-04-28T06:35:39;6;5;
55276;PMS5003;41136;51.478;-2.610;2023-04-28T06:38:05;6;6;
55276;PMS5003;41136;51.478;-2.610;2023-04-28T06:40:29;9;8;
55276;PMS5003;41136;51.478;-2.610;2023-04-28T06:42:55;6;6;
55276;PMS5003;41136;51.478;-2.610;2023-04-28T06:45:20;5;5;
55276;PMS5003;41136;51.478;-2.610;2023-04-28T06:47:45;7;7;
55276;PMS5003;41136;51.478;-2.610;2023-04-28T06:50:11;11;8;
55276;PMS5003;41136;51.478;-2.610;2023-04-28T06:52:36;7;7;
55276;PMS5003;41136;51.478;-2.610;2023-04-28T06:55:01;5;5;
55276;PMS5003;41136;51.478;-2.610;2023-04-28T06:57:26;6;6;
55276;PMS5003;41136;51.478;-2.610;2023-04-28T06:59:52;13;9;
55276;PMS5003;41136;51.478;-2.610;2023-04-28T07:02:17;12;12;
55276;PMS5003;41136;51.478;-2.610;2023-04-28T07:04:42;12;12;
55276;PMS5003;41136;51.478;-2.610;2023-04-28T07:07:07;13;11;
55276;PMS5003;41136;51.478;-2.610;2023-04-28T07:09:33;17;13;
55276;PMS5003;41136;51.478;-2.610;2023-04-28T07:11:58;15;14;
55276;PMS5003;41136;51.478;-2.610;2023-04-28T07:14:23;15;14;
55276;PMS5003;41136;51.478;-2.610;2023-04-28T07:16:48;17;17;
55276;PMS5003;41136;51.478;-2.610;2023-04-28T07:19:14;20;18;
55276;PMS5003;41136;51.478;-2.610;2023-04-28T07:21:39;18;18;
55276;PMS5003;41136;51.478;-2.610;2023-04-28T07:24:05;20;19;
55276;PMS5003;41136;51.478;-2.610;2023-04-28T07:26:30;17;16;
55276;PMS5003;41136;51.478;-2.610;2023-04-28T07:28:55;21;19;
55276;PMS5003;41136;51.478;-2.610;2023-04-28T07:31:21;24;21;
55276;PMS5003;41136;51.478;-2.610;2023-04-28T07:33:46;25;22;
55276;PMS5003;41136;51.478;-2.610;2023-04-28T07:36:12;23;18;
55276;PMS5003;41136;51.478;-2.610;2023-04-28T07:38:37;28;26;
55276;PMS5003;41136;51.478;-2.610;2023-04-28T07:41:02;33;29;
55276;PMS5003;41136;51.478;-2.610;2023-04-28T07:43:27;25;23;
55276;PMS5003;41136;51.478;-2.610;2023-04-28T07:45:52;21;20;
55276;PMS5003;41136;51.478;-2.610;2023-04-28T07:48:18;23;20;
55276;PMS5003;41136;51.478;-2.610;2023-04-28T07:50:43;29;24;
55276;PMS5003;41136;51.478;-2.610;2023-04-28T07:53:09;21;21;
55276;PMS5003;41136;51.478;-2.610;2023-04-28T07:55:34;22;17;
55276;PMS5003;41136;51.478;-2.610;2023-04-28T07:57:59;24;20;
55276;PMS5003;41136;51.478;-2.610;2023-04-28T08:00:25;21;19;
55276;PMS5003;41136;51.478;-2.610;2023-04-28T08:02:50;26;22;
55276;PMS5003;41136;51.478;-2.610;2023-04-28T08:05:16;23;21;
55276;PMS5003;41136;51.478;-2.610;2023-04-28T08:07:42;22;21;
55276;PMS5003;41136;51.478;-2.610;2023-04-28T08:10:08;23;20;
55276;PMS5003;41136;51.478;-2.610;2023-04-28T08:12:33;23;20;
55276;PMS5003;41136;51.478;-2.610;2023-04-28T08:14:58;18;17;
55276;PMS5003;41136;51.478;-2.610;2023-04-28T08:17:23;16;16;
55276;PMS5003;41136;51.478;-2.610;2023-04-28T08:19:49;20;19;
55276;PMS5003;41136;51.478;-2.610;2023-04-28T08:22:14;19;17;
55276;PMS5003;41136;51.478;-2.610;2023-04-28T08:24:40;23;21;
55276;PMS5003;41136;51.478;-2.610;2023-04-28T08:27:05;24;24;
55276;PMS5003;41136;51.478;-2.610;2023-04-28T08:29:31;21;21;
55276;PMS5003;41136;51.478;-2.610;2023-04-28T08:31:57;26;19;
55276;PMS5003;41136;51.478;-2.610;2023-04-28T08:34:22;24;20;
55276;PMS5003;41136;51.478;-2.610;2023-04-28T08:36:47;21;17;
55276;PMS5003;41136;51.478;-2.610;2023-04-28T08:39:13;25;22;
55276;PMS5003;41136;51.478;-2.610;2023-04-28T08:41:39;20;19;
55276;PMS5003;41136;51.478;-2.610;2023-04-28T08:44:05;21;19;
55276;PMS5003;41136;51.478;-2.610;2023-04-28T08:46:30;24;22;
55276;PMS5003;41136;51.478;-2.610;2023-04-28T08:48:57;20;19;
55276;PMS5003;41136;51.478;-2.610;2023-04-28T08:51:23;25;21;
55276;PMS5003;41136;51.478;-2.610;2023-04-28T08:53:48;24;22;
55276;PMS5003;41136;51.478;-2.610;2023-04-28T08:56:12;23;20;
55276;PMS5003;41136;51.478;-2.610;2023-04-28T08:58:38;24;22;
55276;PMS5003;41136;51.478;-2.610;2023-04-28T09:01:03;23;19;
55276;PMS5003;41136;51.478;-2.610;2023-04-28T09:03:29;25;19;
55276;PMS5003;41136;51.478;-2.610;2023-04-28T09:05:54;20;18;
55276;PMS5003;41136;51.478;-2.610;2023-04-28T09:08:20;22;19;
55276;PMS5003;41136;51.478;-2.610;2023-04-28T09:10:46;23;20;
55276;PMS5003;41136;51.478;-2.610;2023-04-28T09:13:22;22;22;
55276;PMS5003;41136;51.478;-2.610;2023-04-28T09:15:37;21;18;
55276;PMS5003;41136;51.478;-2.610;2023-04-28T09:18:03;20;16;
55276;PMS5003;41136;51.478;-2.610;2023-04-28T09:20:28;22;19;
55276;PMS5003;41136;51.478;-2.610;2023-04-28T09:22:54;20;17;
55276;PMS5003;41136;51.478;-2.610;2023-04-28T09:25:19;29;19;
55276;PMS5003;41136;51.478;-2.610;2023-04-28T09:27:45;19;17;
55276;PMS5003;41136;51.478;-2.610;2023-04-28T09:30:11;19;19;
55276;PMS5003;41136;51.478;-2.610;2023-04-28T09:32:35;22;17;
55276;PMS5003;41136;51.478;-2.610;2023-04-28T09:35:00;21;17;
55276;PMS5003;41136;51.478;-2.610;2023-04-28T09:37:26;16;15;
55276;PMS5003;41136;51.478;-2.610;2023-04-28T09:39:52;16;13;
55276;PMS5003;41136;51.478;-2.610;2023-04-28T09:44:42;19;17;
55276;PMS5003;41136;51.478;-2.610;2023-04-28T09:49:32;18;18;
55276;PMS5003;41136;51.478;-2.610;2023-04-28T09:54:24;20;19;
55276;PMS5003;41136;51.478;-2.610;2023-04-28T09:56:49;18;17;
55276;PMS5003;41136;51.478;-2.610;2023-04-28T09:59:14;20;17;
55276;PMS5003;41136;51.478;-2.610;2023-04-28T10:01:40;20;16;
55276;PMS5003;41136;51.478;-2.610;2023-04-28T10:04:05;17;15;
55276;PMS5003;41136;51.478;-2.610;2023-04-28T10:06:30;14;13;
55276;PMS5003;41136;51.478;-2.610;2023-04-28T10:08:56;17;13;
55276;PMS5003;41136;51.478;-2.610;2023-04-28T10:11:21;16;16;
55276;PMS5003;41136;51.478;-2.610;2023-04-28T10:13:47;16;14;
55276;PMS5003;41136;51.478;-2.610;2023-04-28T10:16:13;22;18;
55276;PMS5003;41136;51.478;-2.610;2023-04-28T10:18:38;16;15;
55276;PMS5003;41136;51.478;-2.610;2023-04-28T10:21:04;15;13;
55276;PMS5003;41136;51.478;-2.610;2023-04-28T10:23:41;12;12;
55276;PMS5003;41136;51.478;-2.610;2023-04-28T10:25:55;9;9;
55276;PMS5003;41136;51.478;-2.610;2023-04-28T10:28:19;11;11;
55276;PMS5003;41136;51.478;-2.610;2023-04-28T10:35:39;10;10;
55276;PMS5003;41136;51.478;-2.610;2023-04-28T10:38:02;11;9;
55276;PMS5003;41136;51.478;-2.610;2023-04-28T10:42:53;8;7;
55276;PMS5003;41136;51.478;-2.610;2023-04-28T10:50:08;9;9;
55276;PMS5003;41136;51.478;-2.610;2023-04-28T10:57:23;10;9;
55276;PMS5003;41136;51.478;-2.610;2023-04-28T10:59:50;8;8;
55276;PMS5003;41136;51.478;-2.610;2023-04-28T11:07:09;11;9;
55276;PMS5003;41136;51.478;-2.610;2023-04-28T11:16:47;11;11;
55276;PMS5003;41136;51.478;-2.610;2023-04-28T11:19:12;13;8;
55276;PMS5003;41136;51.478;-2.610;2023-04-28T11:21:37;11;8;
55276;PMS5003;41136;51.478;-2.610;2023-04-28T11:24:07;9;9;
55276;PMS5003;41136;51.478;-2.610;2023-04-28T11:26:28;8;8;
55276;PMS5003;41136;51.478;-2.610;2023-04-28T11:28:54;10;10;
55276;PMS5003;41136;51.478;-2.610;2023-04-28T11:31:19;8;8;
55276;PMS5003;41136;51.478;-2.610;2023-04-28T11:33:48;10;7;
55276;PMS5003;41136;51.478;-2.610;2023-04-28T11:41:01;10;8;
55276;PMS5003;41136;51.478;-2.610;2023-04-28T11:43:27;10;10;
55276;PMS5003;41136;51.478;-2.610;2023-04-28T11:45:53;7;7;
55276;PMS5003;41136;51.478;-2.610;2023-04-28T11:48:19;15;11;
55276;PMS5003;41136;51.478;-2.610;2023-04-28T11:50:43;9;8;
55276;PMS5003;41136;51.478;-2.610;2023-04-28T11:53:09;14;11;
55276;PMS5003;41136;51.478;-2.610;2023-04-28T11:55:34;8;8;
55276;PMS5003;41136;51.478;-2.610;2023-04-28T12:00:25;10;10;
55276;PMS5003;41136;51.478;-2.610;2023-04-28T12:02:50;13;13;
55276;PMS5003;41136;51.478;-2.610;2023-04-28T12:05:15;11;11;
55276;PMS5003;41136;51.478;-2.610;2023-04-28T12:07:41;9;9;
55276;PMS5003;41136;51.478;-2.610;2023-04-28T12:10:10;10;8;
55276;PMS5003;41136;51.478;-2.610;2023-04-28T12:12:31;11;11;
55276;PMS5003;41136;51.478;-2.610;2023-04-28T12:14:57;13;13;
55276;PMS5003;41136;51.478;-2.610;2023-04-28T12:17:23;21;16;
55276;PMS5003;41136;51.478;-2.610;2023-04-28T12:19:49;17;17;
55276;PMS5003;41136;51.478;-2.610;2023-04-28T12:22:14;21;21;
55276;PMS5003;41136;51.478;-2.610;2023-04-28T12:24:40;19;19;
55276;PMS5003;41136;51.478;-2.610;2023-04-28T12:31:56;22;21;
55276;PMS5003;41136;51.478;-2.610;2023-04-28T12:34:21;22;19;
55276;PMS5003;41136;51.478;-2.610;2023-04-28T12:36:47;25;22;
55276;PMS5003;41136;51.478;-2.610;2023-04-28T12:39:13;26;22;
55276;PMS5003;41136;51.478;-2.610;2023-04-28T12:41:38;24;19;
55276;PMS5003;41136;51.478;-2.610;2023-04-28T12:44:03;17;17;
55276;PMS5003;41136;51.478;-2.610;2023-04-28T12:46:29;22;19;
55276;PMS5003;41136;51.478;-2.610;2023-04-28T12:48:54;24;22;
55276;PMS5003;41136;51.478;-2.610;2023-04-28T12:51:20;25;19;
55276;PMS5003;41136;51.478;-2.610;2023-04-28T12:53:45;22;21;
55276;PMS5003;41136;51.478;-2.610;2023-04-28T12:56:10;25;23;
55276;PMS5003;41136;51.478;-2.610;2023-04-28T12:58:36;28;20;
55276;PMS5003;41136;51.478;-2.610;2023-04-28T13:01:02;25;23;
55276;PMS5003;41136;51.478;-2.610;2023-04-28T13:03:27;25;24;
55276;PMS5003;41136;51.478;-2.610;2023-04-28T13:05:53;25;22;
55276;PMS5003;41136;51.478;-2.610;2023-04-28T13:08:18;23;22;
55276;PMS5003;41136;51.478;-2.610;2023-04-28T13:10:43;26;20;
55276;PMS5003;41136;51.478;-2.610;2023-04-28T13:13:09;27;23;
55276;PMS5003;41136;51.478;-2.610;2023-04-28T13:15:34;30;24;
55276;PMS5003;41136;51.478;-2.610;2023-04-28T13:18:00;28;25;
55276;PMS5003;41136;51.478;-2.610;2023-04-28T13:20:26;27;21;
55276;PMS5003;41136;51.478;-2.610;2023-04-28T13:22:51;31;28;
55276;PMS5003;41136;51.478;-2.610;2023-04-28T13:25:16;22;22;
55276;PMS5003;41136;51.478;-2.610;2023-04-28T13:27:42;22;20;
55276;PMS5003;41136;51.478;-2.610;2023-04-28T13:30:08;24;22;
55276;PMS5003;41136;51.478;-2.610;2023-04-28T13:32:33;23;22;
55276;PMS5003;41136;51.478;-2.610;2023-04-28T13:34:59;23;19;
55276;PMS5003;41136;51.478;-2.610;2023-04-28T13:37:24;25;20;
55276;PMS5003;41136;51.478;-2.610;2023-04-28T13:39:49;30;25;
55276;PMS5003;41136;51.478;-2.610;2023-04-28T13:42:15;23;21;
55276;PMS5003;41136;51.478;-2.610;2023-04-28T13:44:40;22;19;
55276;PMS5003;41136;51.478;-2.610;2023-04-28T13:47:06;26;21;
55276;PMS5003;41136;51.478;-2.610;2023-04-28T13:49:32;23;21;
55276;PMS5003;41136;51.478;-2.610;2023-04-28T13:51:57;20;18;
55276;PMS5003;41136;51.478;-2.610;2023-04-28T13:54:22;21;19;
55276;PMS5003;41136;51.478;-2.610;2023-04-28T13:56:48;20;18;
55276;PMS5003;41136;51.478;-2.610;2023-04-28T13:59:13;21;21;
55276;PMS5003;41136;51.478;-2.610;2023-04-28T14:01:38;27;19;
55276;PMS5003;41136;51.478;-2.610;2023-04-28T14:04:03;16;15;
55276;PMS5003;41136;51.478;-2.610;2023-04-28T14:06:29;23;18;
55276;PMS5003;41136;51.478;-2.610;2023-04-28T14:08:55;16;16;
55276;PMS5003;41136;51.478;-2.610;2023-04-28T14:11:20;18;16;
55276;PMS5003;41136;51.478;-2.610;2023-04-28T14:13:46;22;20;
55276;PMS5003;41136;51.478;-2.610;2023-04-28T14:16:12;21;18;
55276;PMS5003;41136;51.478;-2.610;2023-04-28T14:18:37;18;17;
55276;PMS5003;41136;51.478;-2.610;2023-04-28T14:21:03;27;20;
55276;PMS5003;41136;51.478;-2.610;2023-04-28T14:23:28;19;18;
55276;PMS5003;41136;51.478;-2.610;2023-04-28T14:25:53;22;22;
55276;PMS5003;41136;51.478;-2.610;2023-04-28T14:28:18;19;18;
55276;PMS5003;41136;51.478;-2.610;2023-04-28T14:30:43;23;18;
55276;PMS5003;41136;51.478;-2.610;2023-04-28T14:33:09;16;15;
55276;PMS5003;41136;51.478;-2.610;2023-04-28T14:35:34;18;18;
55276;PMS5003;41136;51.478;-2.610;2023-04-28T14:37:59;19;17;
55276;PMS5003;41136;51.478;-2.610;2023-04-28T14:40:25;15;14;
55276;PMS5003;41136;51.478;-2.610;2023-04-28T14:42:50;20;17;
55276;PMS5003;41136;51.478;-2.610;2023-04-28T14:45:16;16;16;
55276;PMS5003;41136;51.478;-2.610;2023-04-28T14:47:42;19;17;
55276;PMS5003;41136;51.478;-2.610;2023-04-28T14:50:08;14;14;
55276;PMS5003;41136;51.478;-2.610;2023-04-28T14:52:33;19;13;
55276;PMS5003;41136;51.478;-2.610;2023-04-28T14:54:59;17;15;
55276;PMS5003;41136;51.478;-2.610;2023-04-28T14:57:24;20;18;
55276;PMS5003;41136;51.478;-2.610;2023-04-28T14:59:49;18;17;
55276;PMS5003;41136;51.478;-2.610;2023-04-28T15:02:15;18;17;
55276;PMS5003;41136;51.478;-2.610;2023-04-28T15:04:45;25;21;
55276;PMS5003;41136;51.478;-2.610;2023-04-28T15:07:05;24;22;
55276;PMS5003;41136;51.478;-2.610;2023-04-28T15:09:30;19;19;
55276;PMS5003;41136;51.478;-2.610;2023-04-28T15:11:56;21;18;
55276;PMS5003;41136;51.478;-2.610;2023-04-28T15:14:22;20;16;
55276;PMS5003;41136;51.478;-2.610;2023-04-28T15:16:47;18;16;
55276;PMS5003;41136;51.478;-2.610;2023-04-28T15:19:13;16;14;
55276;PMS5003;41136;51.478;-2.610;2023-04-28T15:21:39;19;19;
55276;PMS5003;41136;51.478;-2.610;2023-04-28T15:24:04;20;16;
55276;PMS5003;41136;51.478;-2.610;2023-04-28T15:26:30;20;17;
55276;PMS5003;41136;51.478;-2.610;2023-04-28T15:28:55;20;17;
55276;PMS5003;41136;51.478;-2.610;2023-04-28T15:31:21;19;16;
55276;PMS5003;41136;51.478;-2.610;2023-04-28T15:33:46;23;21;
55276;PMS5003;41136;51.478;-2.610;2023-04-28T15:36:11;22;16;
55276;PMS5003;41136;51.478;-2.610;2023-04-28T15:38:37;20;18;
55276;PMS5003;41136;51.478;-2.610;2023-04-28T15:41:02;23;18;
55276;PMS5003;41136;51.478;-2.610;2023-04-28T15:43:27;18;18;
55276;PMS5003;41136;51.478;-2.610;2023-04-28T15:45:53;16;16;
55276;PMS5003;41136;51.478;-2.610;2023-04-28T15:48:17;20;18;
55276;PMS5003;41136;51.478;-2.610;2023-04-28T15:50:43;19;14;
55276;PMS5003;41136;51.478;-2.610;2023-04-28T15:53:09;22;18;
55276;PMS5003;41136;51.478;-2.610;2023-04-28T15:55:34;20;17;
55276;PMS5003;41136;51.478;-2.610;2023-04-28T15:58:00;16;12;
55276;PMS5003;41136;51.478;-2.610;2023-04-28T16:00:25;19;18;
55276;PMS5003;41136;51.478;-2.610;2023-04-28T16:07:11;17;16;
55276;PMS5003;41136;51.478;-2.610;2023-04-28T16:09:36;16;15;
55276;PMS5003;41136;51.478;-2.610;2023-04-28T16:12:02;17;14;
55276;PMS5003;41136;51.478;-2.610;2023-04-28T16:14:27;14;12;
55276;PMS5003;41136;51.478;-2.610;2023-04-28T16:16:52;16;13;
55276;PMS5003;41136;51.478;-2.610;2023-04-28T16:19:18;17;17;
55276;PMS5003;41136;51.478;-2.610;2023-04-28T16:21:44;17;17;
55276;PMS5003;41136;51.478;-2.610;2023-04-28T16:24:09;13;13;
55276;PMS5003;41136;51.478;-2.610;2023-04-28T16:26:34;13;13;
55276;PMS5003;41136;51.478;-2.610;2023-04-28T16:28:59;13;13;
55276;PMS5003;41136;51.478;-2.610;2023-04-28T16:31:25;17;14;
55276;PMS5003;41136;51.478;-2.610;2023-04-28T16:33:51;12;12;
55276;PMS5003;41136;51.478;-2.610;2023-04-28T16:36:16;13;13;
55276;PMS5003;41136;51.478;-2.610;2023-04-28T16:38:41;20;13;
55276;PMS5003;41136;51.478;-2.610;2023-04-28T16:41:07;13;13;
55276;PMS5003;41136;51.478;-2.610;2023-04-28T16:43:32;20;20;
55276;PMS5003;41136;51.478;-2.610;2023-04-28T16:45:58;17;17;
55276;PMS5003;41136;51.478;-2.610;2023-04-28T16:48:23;18;16;
55276;PMS5003;41136;51.478;-2.610;2023-04-28T16:50:48;16;14;
55276;PMS5003;41136;51.478;-2.610;2023-04-28T16:53:13;27;20;
55276;PMS5003;41136;51.478;-2.610;2023-04-28T16:55:39;31;22;
55276;PMS5003;41136;51.478;-2.610;2023-04-28T16:58:04;28;23;
55276;PMS5003;41136;51.478;-2.610;2023-04-28T17:00:29;22;21;